sensor_id;sensor_type;location;lat;lon;timestamp;P1;durP1;ratioP1;P2;durP2;ratioP2
962;SDS011;469;48.770;9.176;2022-08-21T00:01:33;4.00;;;2.00;;
962;SDS011;469;48.770;9.176;2022-08-21T00:04:03;5.32;;;2.28;;
962;SDS011;469;48.770;9.176;2022-08-21T00:06:31;4.80;;;2.30;;
962;SDS011;469;48.770;9.176;2022-08-21T00:08:58;6.60;;;2.08;;
962;SDS011;469;48.770;9.176;2022-08-21T00:11:25;9.13;;;2.78;;
962;SDS011;469;48.770;9.176;2022-08-21T00:13:52;7.55;;;2.88;;
962;SDS011;469;48.770;9.176;2022-08-21T00:16:19;5.28;;;2.30;;
962;SDS011;469;48.770;9.176;2022-08-21T00:18:47;6.20;;;2.55;;
962;SDS011;469;48.770;9.176;2022-08-21T00:21:14;8.27;;;2.40;;
962;SDS011;469;48.770;9.176;2022-08-21T00:23:41;7.15;;;2.38;;
962;SDS011;469;48.770;9.176;2022-08-21T00:26:08;5.40;;;2.40;;
962;SDS011;469;48.770;9.176;2022-08-21T00:28:35;4.90;;;2.22;;
962;SDS011;469;48.770;9.176;2022-08-21T00:31:02;5.95;;;2.30;;
962;SDS011;469;48.770;9.176;2022-08-21T00:33:30;7.82;;;2.72;;
962;SDS011;469;48.770;9.176;2022-08-21T00:35:58;5.75;;;1.95;;
962;SDS011;469;48.770;9.176;2022-08-21T00:38:25;4.28;;;2.20;;
962;SDS011;469;48.770;9.176;2022-08-21T00:40:53;7.60;;;2.50;;
962;SDS011;469;48.770;9.176;2022-08-21T00:43:22;5.32;;;2.35;;
962;SDS011;469;48.770;9.176;2022-08-21T00:45:53;10.52;;;2.50;;
962;SDS011;469;48.770;9.176;2022-08-21T00:48:20;7.93;;;2.58;;
962;SDS011;469;48.770;9.176;2022-08-21T00:50:49;5.13;;;2.53;;
962;SDS011;469;48.770;9.176;2022-08-21T00:53:21;5.22;;;2.30;;
962;SDS011;469;48.770;9.176;2022-08-21T00:55:48;5.97;;;2.67;;
962;SDS011;469;48.770;9.176;2022-08-21T00:58:15;6.47;;;2.35;;
962;SDS011;469;48.770;9.176;2022-08-21T01:00:43;6.78;;;2.60;;
962;SDS011;469;48.770;9.176;2022-08-21T01:03:13;9.57;;;2.15;;
962;SDS011;469;48.770;9.176;2022-08-21T01:05:42;7.95;;;2.63;;
962;SDS011;469;48.770;9.176;2022-08-21T01:08:10;4.95;;;1.90;;
962;SDS011;469;48.770;9.176;2022-08-21T01:10:40;4.38;;;2.20;;
962;SDS011;469;48.770;9.176;2022-08-21T01:13:08;5.22;;;2.60;;
962;SDS011;469;48.770;9.176;2022-08-21T01:15:38;7.03;;;2.40;;
962;SDS011;469;48.770;9.176;2022-08-21T01:18:09;5.03;;;2.35;;
962;SDS011;469;48.770;9.176;2022-08-21T01:20:37;8.68;;;2.50;;
962;SDS011;469;48.770;9.176;2022-08-21T01:23:09;6.88;;;2.60;;
962;SDS011;469;48.770;9.176;2022-08-21T01:25:35;4.78;;;2.22;;
962;SDS011;469;48.770;9.176;2022-08-21T01:28:04;6.20;;;2.50;;
962;SDS011;469;48.770;9.176;2022-08-21T01:30:38;5.63;;;2.03;;
962;SDS011;469;48.770;9.176;2022-08-21T01:33:06;8.43;;;2.13;;
962;SDS011;469;48.770;9.176;2022-08-21T01:35:33;7.18;;;2.72;;
962;SDS011;469;48.770;9.176;2022-08-21T01:37:59;7.70;;;2.05;;
962;SDS011;469;48.770;9.176;2022-08-21T01:40:27;5.63;;;1.88;;
962;SDS011;469;48.770;9.176;2022-08-21T01:42:54;8.93;;;2.38;;
962;SDS011;469;48.770;9.176;2022-08-21T01:45:21;8.15;;;2.30;;
962;SDS011;469;48.770;9.176;2022-08-21T01:47:48;8.88;;;2.30;;
962;SDS011;469;48.770;9.176;2022-08-21T01:50:16;5.78;;;1.98;;
962;SDS011;469;48.770;9.176;2022-08-21T01:52:46;4.75;;;2.38;;
962;SDS011;469;48.770;9.176;2022-08-21T01:55:13;4.45;;;2.20;;
962;SDS011;469;48.770;9.176;2022-08-21T01:57:44;5.85;;;2.40;;
962;SDS011;469;48.770;9.176;2022-08-21T02:00:12;10.43;;;2.20;;
962;SDS011;469;48.770;9.176;2022-08-21T02:02:42;8.07;;;2.45;;
962;SDS011;469;48.770;9.176;2022-08-21T02:05:09;7.78;;;2.20;;
962;SDS011;469;48.770;9.176;2022-08-21T02:07:37;4.88;;;2.63;;
962;SDS011;469;48.770;9.176;2022-08-21T02:10:06;8.45;;;2.72;;
962;SDS011;469;48.770;9.176;2022-08-21T02:12:34;7.18;;;2.70;;
962;SDS011;469;48.770;9.176;2022-08-21T02:15:02;3.72;;;2.10;;
962;SDS011;469;48.770;9.176;2022-08-21T02:17:36;5.95;;;2.45;;
962;SDS011;469;48.770;9.176;2022-08-21T02:20:05;6.80;;;2.53;;
962;SDS011;469;48.770;9.176;2022-08-21T02:22:33;6.60;;;2.92;;
962;SDS011;469;48.770;9.176;2022-08-21T02:25:00;7.25;;;2.55;;
962;SDS011;469;48.770;9.176;2022-08-21T02:27:26;7.95;;;2.55;;
962;SDS011;469;48.770;9.176;2022-08-21T02:29:54;8.20;;;2.20;;
962;SDS011;469;48.770;9.176;2022-08-21T02:32:23;4.80;;;2.28;;
962;SDS011;469;48.770;9.176;2022-08-21T02:34:51;6.70;;;2.33;;
962;SDS011;469;48.770;9.176;2022-08-21T02:37:17;6.05;;;2.85;;
962;SDS011;469;48.770;9.176;2022-08-21T02:39:44;7.80;;;2.88;;
962;SDS011;469;48.770;9.176;2022-08-21T02:42:11;4.60;;;2.30;;
962;SDS011;469;48.770;9.176;2022-08-21T02:44:37;8.45;;;2.60;;
962;SDS011;469;48.770;9.176;2022-08-21T02:47:04;6.13;;;2.67;;
962;SDS011;469;48.770;9.176;2022-08-21T02:49:32;6.95;;;2.50;;
962;SDS011;469;48.770;9.176;2022-08-21T02:51:59;6.40;;;2.35;;
962;SDS011;469;48.770;9.176;2022-08-21T02:54:25;6.43;;;2.60;;
962;SDS011;469;48.770;9.176;2022-08-21T02:56:52;7.90;;;2.63;;
962;SDS011;469;48.770;9.176;2022-08-21T03:02:13;5.35;;;2.40;;
962;SDS011;469;48.770;9.176;2022-08-21T03:04:41;8.38;;;2.90;;
962;SDS011;469;48.770;9.176;2022-08-21T03:07:07;11.00;;;3.05;;
962;SDS011;469;48.770;9.176;2022-08-21T03:09:34;4.93;;;2.40;;
962;SDS011;469;48.770;9.176;2022-08-21T03:12:01;4.25;;;2.10;;
962;SDS011;469;48.770;9.176;2022-08-21T03:14:29;5.18;;;2.75;;
962;SDS011;469;48.770;9.176;2022-08-21T03:16:56;7.57;;;2.58;;
962;SDS011;469;48.770;9.176;2022-08-21T03:19:22;9.10;;;2.75;;
962;SDS011;469;48.770;9.176;2022-08-21T03:21:50;6.30;;;2.40;;
962;SDS011;469;48.770;9.176;2022-08-21T03:24:17;5.32;;;2.10;;
962;SDS011;469;48.770;9.176;2022-08-21T03:26:44;5.20;;;2.30;;
962;SDS011;469;48.770;9.176;2022-08-21T03:29:10;6.13;;;2.50;;
962;SDS011;469;48.770;9.176;2022-08-21T03:31:37;5.57;;;2.60;;
962;SDS011;469;48.770;9.176;2022-08-21T03:34:04;6.35;;;2.75;;
962;SDS011;469;48.770;9.176;2022-08-21T03:36:31;9.82;;;3.25;;
962;SDS011;469;48.770;9.176;2022-08-21T03:38:59;5.80;;;2.83;;
962;SDS011;469;48.770;9.176;2022-08-21T03:41:26;4.97;;;2.42;;
962;SDS011;469;48.770;9.176;2022-08-21T03:43:52;5.88;;;2.40;;
962;SDS011;469;48.770;9.176;2022-08-21T03:46:20;5.75;;;2.70;;
962;SDS011;469;48.770;9.176;2022-08-21T03:48:47;5.43;;;3.03;;
962;SDS011;469;48.770;9.176;2022-08-21T03:51:14;6.03;;;2.70;;
962;SDS011;469;48.770;9.176;2022-08-21T03:53:41;8.73;;;2.72;;
962;SDS011;469;48.770;9.176;2022-08-21T03:56:11;7.45;;;2.75;;
962;SDS011;469;48.770;9.176;2022-08-21T03:58:38;7.13;;;2.90;;
962;SDS011;469;48.770;9.176;2022-08-21T04:01:05;6.53;;;2.63;;
962;SDS011;469;48.770;9.176;2022-08-21T04:03:34;8.77;;;2.90;;
962;SDS011;469;48.770;9.176;2022-08-21T04:06:01;7.75;;;4.43;;
962;SDS011;469;48.770;9.176;2022-08-21T04:08:28;5.63;;;2.65;;
962;SDS011;469;48.770;9.176;2022-08-21T04:10:57;5.82;;;2.70;;
962;SDS011;469;48.770;9.176;2022-08-21T04:13:26;6.97;;;2.55;;
962;SDS011;469;48.770;9.176;2022-08-21T04:15:53;7.97;;;3.28;;
962;SDS011;469;48.770;9.176;2022-08-21T04:18:21;5.93;;;2.75;;
962;SDS011;469;48.770;9.176;2022-08-21T04:20:48;9.05;;;3.00;;
962;SDS011;469;48.770;9.176;2022-08-21T04:23:16;5.93;;;2.92;;
962;SDS011;469;48.770;9.176;2022-08-21T04:25:43;5.53;;;2.97;;
962;SDS011;469;48.770;9.176;2022-08-21T04:28:11;7.15;;;2.83;;
962;SDS011;469;48.770;9.176;2022-08-21T04:30:39;14.75;;;5.03;;
962;SDS011;469;48.770;9.176;2022-08-21T04:33:06;8.68;;;2.60;;
962;SDS011;469;48.770;9.176;2022-08-21T04:35:33;4.72;;;2.80;;
962;SDS011;469;48.770;9.176;2022-08-21T04:38:00;8.73;;;3.15;;
962;SDS011;469;48.770;9.176;2022-08-21T04:40:27;9.90;;;3.22;;
962;SDS011;469;48.770;9.176;2022-08-21T04:42:56;8.70;;;2.65;;
962;SDS011;469;48.770;9.176;2022-08-21T04:45:25;8.27;;;2.92;;
962;SDS011;469;48.770;9.176;2022-08-21T04:47:55;5.82;;;3.40;;
962;SDS011;469;48.770;9.176;2022-08-21T04:50:24;6.57;;;3.13;;
962;SDS011;469;48.770;9.176;2022-08-21T04:52:53;9.07;;;3.10;;
962;SDS011;469;48.770;9.176;2022-08-21T04:55:20;7.22;;;2.95;;
962;SDS011;469;48.770;9.176;2022-08-21T04:57:48;6.05;;;2.60;;
962;SDS011;469;48.770;9.176;2022-08-21T05:00:18;7.82;;;3.05;;
962;SDS011;469;48.770;9.176;2022-08-21T05:02:46;4.95;;;2.95;;
962;SDS011;469;48.770;9.176;2022-08-21T05:05:15;8.60;;;3.00;;
962;SDS011;469;48.770;9.176;2022-08-21T05:07:42;7.32;;;3.00;;
962;SDS011;469;48.770;9.176;2022-08-21T05:10:11;14.18;;;3.13;;
962;SDS011;469;48.770;9.176;2022-08-21T05:12:39;8.88;;;3.92;;
962;SDS011;469;48.770;9.176;2022-08-21T05:15:07;10.98;;;3.20;;
962;SDS011;469;48.770;9.176;2022-08-21T05:17:37;6.50;;;2.90;;
962;SDS011;469;48.770;9.176;2022-08-21T05:20:04;9.48;;;4.53;;
962;SDS011;469;48.770;9.176;2022-08-21T05:22:33;11.82;;;3.00;;
962;SDS011;469;48.770;9.176;2022-08-21T05:25:00;4.93;;;3.00;;
962;SDS011;469;48.770;9.176;2022-08-21T05:27:27;6.68;;;2.70;;
962;SDS011;469;48.770;9.176;2022-08-21T05:29:55;8.02;;;2.90;;
962;SDS011;469;48.770;9.176;2022-08-21T05:32:22;5.60;;;2.60;;
962;SDS011;469;48.770;9.176;2022-08-21T05:34:49;10.98;;;3.38;;
962;SDS011;469;48.770;9.176;2022-08-21T05:37:16;7.50;;;3.05;;
962;SDS011;469;48.770;9.176;2022-08-21T05:39:45;7.78;;;2.58;;
962;SDS011;469;48.770;9.176;2022-08-21T05:42:12;4.50;;;2.38;;
962;SDS011;469;48.770;9.176;2022-08-21T05:44:39;4.75;;;2.63;;
962;SDS011;469;48.770;9.176;2022-08-21T05:47:06;8.23;;;3.00;;
962;SDS011;469;48.770;9.176;2022-08-21T05:49:34;8.77;;;3.00;;
962;SDS011;469;48.770;9.176;2022-08-21T05:52:01;7.40;;;3.00;;
962;SDS011;469;48.770;9.176;2022-08-21T05:54:29;8.18;;;2.85;;
962;SDS011;469;48.770;9.176;2022-08-21T05:56:57;8.45;;;3.25;;
962;SDS011;469;48.770;9.176;2022-08-21T05:59:24;7.15;;;3.22;;
962;SDS011;469;48.770;9.176;2022-08-21T06:01:52;6.78;;;3.15;;
962;SDS011;469;48.770;9.176;2022-08-21T06:04:19;6.80;;;2.95;;
962;SDS011;469;48.770;9.176;2022-08-21T06:06:46;6.35;;;3.30;;
962;SDS011;469;48.770;9.176;2022-08-21T06:09:13;6.07;;;2.58;;
962;SDS011;469;48.770;9.176;2022-08-21T06:11:40;9.93;;;3.40;;
962;SDS011;469;48.770;9.176;2022-08-21T06:14:09;5.43;;;2.60;;
962;SDS011;469;48.770;9.176;2022-08-21T06:16:36;5.10;;;2.50;;
962;SDS011;469;48.770;9.176;2022-08-21T06:19:03;5.53;;;2.80;;
962;SDS011;469;48.770;9.176;2022-08-21T06:21:30;4.95;;;2.22;;
962;SDS011;469;48.770;9.176;2022-08-21T06:23:57;7.25;;;2.83;;
962;SDS011;469;48.770;9.176;2022-08-21T06:26:24;13.15;;;3.00;;
962;SDS011;469;48.770;9.176;2022-08-21T06:28:52;6.95;;;3.50;;
962;SDS011;469;48.770;9.176;2022-08-21T06:31:22;9.70;;;2.50;;
962;SDS011;469;48.770;9.176;2022-08-21T06:33:49;8.07;;;3.22;;
962;SDS011;469;48.770;9.176;2022-08-21T06:36:17;7.13;;;2.88;;
962;SDS011;469;48.770;9.176;2022-08-21T06:38:45;8.45;;;3.40;;
962;SDS011;469;48.770;9.176;2022-08-21T06:41:12;8.00;;;2.60;;
962;SDS011;469;48.770;9.176;2022-08-21T06:43:40;8.32;;;3.05;;
962;SDS011;469;48.770;9.176;2022-08-21T06:46:07;8.15;;;3.08;;
962;SDS011;469;48.770;9.176;2022-08-21T06:48:35;10.30;;;3.00;;
962;SDS011;469;48.770;9.176;2022-08-21T06:51:03;8.20;;;3.30;;
962;SDS011;469;48.770;9.176;2022-08-21T06:53:30;6.90;;;3.45;;
962;SDS011;469;48.770;9.176;2022-08-21T06:55:57;9.60;;;2.80;;
962;SDS011;469;48.770;9.176;2022-08-21T06:58:24;9.00;;;3.55;;
962;SDS011;469;48.770;9.176;2022-08-21T07:00:51;8.15;;;3.45;;
962;SDS011;469;48.770;9.176;2022-08-21T07:03:20;7.40;;;3.13;;
962;SDS011;469;48.770;9.176;2022-08-21T07:05:49;9.93;;;3.20;;
962;SDS011;469;48.770;9.176;2022-08-21T07:08:16;8.57;;;3.40;;
962;SDS011;469;48.770;9.176;2022-08-21T07:10:43;8.95;;;2.97;;
962;SDS011;469;48.770;9.176;2022-08-21T07:13:10;15.95;;;3.20;;
962;SDS011;469;48.770;9.176;2022-08-21T07:15:38;10.20;;;2.90;;
962;SDS011;469;48.770;9.176;2022-08-21T07:18:04;6.90;;;3.30;;
962;SDS011;469;48.770;9.176;2022-08-21T07:20:31;6.05;;;3.10;;
962;SDS011;469;48.770;9.176;2022-08-21T07:23:03;9.55;;;3.03;;
962;SDS011;469;48.770;9.176;2022-08-21T07:25:33;10.93;;;3.25;;
962;SDS011;469;48.770;9.176;2022-08-21T07:28:00;8.32;;;3.50;;
962;SDS011;469;48.770;9.176;2022-08-21T07:30:27;10.20;;;3.05;;
962;SDS011;469;48.770;9.176;2022-08-21T07:32:54;10.20;;;3.10;;
962;SDS011;469;48.770;9.176;2022-08-21T07:35:21;8.07;;;3.10;;
962;SDS011;469;48.770;9.176;2022-08-21T07:37:49;8.55;;;2.72;;
962;SDS011;469;48.770;9.176;2022-08-21T07:40:17;12.38;;;2.90;;
962;SDS011;469;48.770;9.176;2022-08-21T07:42:45;9.05;;;3.42;;
962;SDS011;469;48.770;9.176;2022-08-21T07:45:15;7.88;;;3.55;;
962;SDS011;469;48.770;9.176;2022-08-21T07:47:42;10.13;;;3.17;;
962;SDS011;469;48.770;9.176;2022-08-21T07:50:10;18.08;;;3.55;;
962;SDS011;469;48.770;9.176;2022-08-21T07:52:40;15.88;;;3.80;;
962;SDS011;469;48.770;9.176;2022-08-21T07:55:08;6.35;;;3.15;;
962;SDS011;469;48.770;9.176;2022-08-21T07:57:38;8.38;;;3.83;;
962;SDS011;469;48.770;9.176;2022-08-21T08:00:12;10.68;;;3.42;;
962;SDS011;469;48.770;9.176;2022-08-21T08:02:40;13.65;;;3.55;;
962;SDS011;469;48.770;9.176;2022-08-21T08:05:10;8.27;;;3.45;;
962;SDS011;469;48.770;9.176;2022-08-21T08:07:37;8.23;;;3.40;;
962;SDS011;469;48.770;9.176;2022-08-21T08:10:05;7.70;;;3.08;;
962;SDS011;469;48.770;9.176;2022-08-21T08:12:32;13.23;;;3.38;;
962;SDS011;469;48.770;9.176;2022-08-21T08:15:01;11.45;;;3.67;;
962;SDS011;469;48.770;9.176;2022-08-21T08:17:29;9.98;;;4.25;;
962;SDS011;469;48.770;9.176;2022-08-21T08:19:57;17.30;;;4.22;;
962;SDS011;469;48.770;9.176;2022-08-21T08:22:25;11.00;;;3.70;;
962;SDS011;469;48.770;9.176;2022-08-21T08:24:53;10.55;;;3.95;;
962;SDS011;469;48.770;9.176;2022-08-21T08:27:20;7.68;;;3.58;;
962;SDS011;469;48.770;9.176;2022-08-21T08:29:47;10.85;;;3.70;;
962;SDS011;469;48.770;9.176;2022-08-21T08:32:15;9.60;;;4.68;;
962;SDS011;469;48.770;9.176;2022-08-21T08:34:42;10.30;;;3.67;;
962;SDS011;469;48.770;9.176;2022-08-21T08:37:11;10.18;;;3.22;;
962;SDS011;469;48.770;9.176;2022-08-21T08:39:38;7.32;;;2.65;;
962;SDS011;469;48.770;9.176;2022-08-21T08:42:07;8.50;;;3.05;;
962;SDS011;469;48.770;9.176;2022-08-21T08:44:35;10.20;;;3.83;;
962;SDS011;469;48.770;9.176;2022-08-21T08:47:06;9.93;;;3.28;;
962;SDS011;469;48.770;9.176;2022-08-21T08:49:37;14.45;;;3.95;;
962;SDS011;469;48.770;9.176;2022-08-21T08:52:05;8.63;;;3.42;;
962;SDS011;469;48.770;9.176;2022-08-21T08:54:35;8.23;;;4.05;;
962;SDS011;469;48.770;9.176;2022-08-21T08:57:06;11.15;;;3.72;;
962;SDS011;469;48.770;9.176;2022-08-21T08:59:36;9.18;;;3.05;;
962;SDS011;469;48.770;9.176;2022-08-21T09:02:05;8.45;;;3.40;;
962;SDS011;469;48.770;9.176;2022-08-21T09:04:32;9.27;;;3.45;;
962;SDS011;469;48.770;9.176;2022-08-21T09:07:04;7.53;;;3.33;;
962;SDS011;469;48.770;9.176;2022-08-21T09:09:37;13.32;;;3.50;;
962;SDS011;469;48.770;9.176;2022-08-21T09:12:06;7.82;;;3.50;;
962;SDS011;469;48.770;9.176;2022-08-21T09:14:42;9.43;;;3.38;;
962;SDS011;469;48.770;9.176;2022-08-21T09:17:17;8.05;;;3.25;;
962;SDS011;469;48.770;9.176;2022-08-21T09:19:49;10.57;;;3.95;;
962;SDS011;469;48.770;9.176;2022-08-21T09:22:23;9.07;;;2.85;;
962;SDS011;469;48.770;9.176;2022-08-21T09:24:57;10.30;;;3.22;;
962;SDS011;469;48.770;9.176;2022-08-21T09:27:26;9.38;;;3.40;;
962;SDS011;469;48.770;9.176;2022-08-21T09:29:53;10.02;;;3.25;;
962;SDS011;469;48.770;9.176;2022-08-21T09:32:23;7.45;;;3.47;;
962;SDS011;469;48.770;9.176;2022-08-21T09:34:57;8.27;;;3.53;;
962;SDS011;469;48.770;9.176;2022-08-21T09:37:27;7.70;;;3.60;;
962;SDS011;469;48.770;9.176;2022-08-21T09:39:55;14.30;;;3.13;;
962;SDS011;469;48.770;9.176;2022-08-21T09:42:24;9.90;;;3.20;;
962;SDS011;469;48.770;9.176;2022-08-21T09:45:04;7.40;;;3.47;;
962;SDS011;469;48.770;9.176;2022-08-21T09:47:32;9.38;;;3.03;;
962;SDS011;469;48.770;9.176;2022-08-21T09:50:06;10.60;;;4.05;;
962;SDS011;469;48.770;9.176;2022-08-21T09:52:41;9.73;;;3.47;;
962;SDS011;469;48.770;9.176;2022-08-21T09:55:08;10.18;;;3.85;;
962;SDS011;469;48.770;9.176;2022-08-21T09:58:02;9.98;;;3.50;;
962;SDS011;469;48.770;9.176;2022-08-21T10:00:29;12.60;;;3.42;;
962;SDS011;469;48.770;9.176;2022-08-21T10:03:07;10.95;;;3.22;;
962;SDS011;469;48.770;9.176;2022-08-21T10:05:34;12.60;;;3.15;;
962;SDS011;469;48.770;9.176;2022-08-21T10:08:03;8.70;;;3.58;;
962;SDS011;469;48.770;9.176;2022-08-21T10:10:31;7.85;;;3.65;;
962;SDS011;469;48.770;9.176;2022-08-21T10:13:00;8.15;;;3.35;;
962;SDS011;469;48.770;9.176;2022-08-21T10:15:31;14.65;;;4.35;;
962;SDS011;469;48.770;9.176;2022-08-21T10:18:02;10.20;;;3.80;;
962;SDS011;469;48.770;9.176;2022-08-21T10:20:34;8.38;;;3.78;;
962;SDS011;469;48.770;9.176;2022-08-21T10:23:06;9.63;;;3.60;;
962;SDS011;469;48.770;9.176;2022-08-21T10:25:36;13.85;;;4.05;;
962;SDS011;469;48.770;9.176;2022-08-21T10:28:05;11.02;;;4.22;;
962;SDS011;469;48.770;9.176;2022-08-21T10:30:36;11.57;;;3.40;;
962;SDS011;469;48.770;9.176;2022-08-21T10:33:10;13.27;;;3.85;;
962;SDS011;469;48.770;9.176;2022-08-21T10:35:40;9.88;;;3.90;;
962;SDS011;469;48.770;9.176;2022-08-21T10:38:16;5.97;;;3.40;;
962;SDS011;469;48.770;9.176;2022-08-21T10:40:48;7.28;;;3.45;;
962;SDS011;469;48.770;9.176;2022-08-21T10:43:21;7.80;;;3.75;;
962;SDS011;469;48.770;9.176;2022-08-21T10:45:52;7.40;;;3.38;;
962;SDS011;469;48.770;9.176;2022-08-21T10:48:24;9.10;;;3.30;;
962;SDS011;469;48.770;9.176;2022-08-21T10:50:53;7.60;;;3.42;;
962;SDS011;469;48.770;9.176;2022-08-21T10:53:35;9.90;;;3.63;;
962;SDS011;469;48.770;9.176;2022-08-21T10:56:05;8.43;;;3.58;;
962;SDS011;469;48.770;9.176;2022-08-21T10:58:38;13.07;;;3.63;;
962;SDS011;469;48.770;9.176;2022-08-21T11:01:09;6.90;;;3.58;;
962;SDS011;469;48.770;9.176;2022-08-21T11:03:39;9.55;;;3.55;;
962;SDS011;469;48.770;9.176;2022-08-21T11:06:09;8.02;;;3.30;;
962;SDS011;469;48.770;9.176;2022-08-21T11:08:39;11.07;;;3.85;;
962;SDS011;469;48.770;9.176;2022-08-21T11:11:08;10.95;;;4.03;;
962;SDS011;469;48.770;9.176;2022-08-21T11:13:38;9.35;;;3.67;;
962;SDS011;469;48.770;9.176;2022-08-21T11:16:07;9.75;;;3.80;;
962;SDS011;469;48.770;9.176;2022-08-21T11:18:36;9.00;;;3.50;;
962;SDS011;469;48.770;9.176;2022-08-21T11:21:12;7.80;;;3.65;;
962;SDS011;469;48.770;9.176;2022-08-21T11:23:44;11.00;;;3.90;;
962;SDS011;469;48.770;9.176;2022-08-21T11:26:13;8.75;;;3.33;;
962;SDS011;469;48.770;9.176;2022-08-21T11:28:43;10.30;;;3.60;;
962;SDS011;469;48.770;9.176;2022-08-21T11:31:15;10.27;;;3.70;;
962;SDS011;469;48.770;9.176;2022-08-21T11:33:47;10.13;;;3.45;;
962;SDS011;469;48.770;9.176;2022-08-21T11:36:18;8.73;;;3.78;;
962;SDS011;469;48.770;9.176;2022-08-21T11:38:50;6.80;;;3.60;;
962;SDS011;469;48.770;9.176;2022-08-21T11:41:21;12.27;;;3.50;;
962;SDS011;469;48.770;9.176;2022-08-21T11:43:52;12.93;;;3.40;;
962;SDS011;469;48.770;9.176;2022-08-21T11:46:24;11.50;;;3.70;;
962;SDS011;469;48.770;9.176;2022-08-21T11:48:56;7.88;;;2.92;;
962;SDS011;469;48.770;9.176;2022-08-21T11:51:27;10.00;;;3.70;;
962;SDS011;469;48.770;9.176;2022-08-21T11:53:59;7.95;;;3.00;;
962;SDS011;469;48.770;9.176;2022-08-21T11:56:30;11.13;;;3.33;;
962;SDS011;469;48.770;9.176;2022-08-21T11:59:00;14.32;;;3.58;;
962;SDS011;469;48.770;9.176;2022-08-21T12:01:31;10.23;;;3.67;;
962;SDS011;469;48.770;9.176;2022-08-21T12:04:00;9.07;;;3.72;;
962;SDS011;469;48.770;9.176;2022-08-21T12:06:29;7.10;;;2.88;;
962;SDS011;469;48.770;9.176;2022-08-21T12:08:59;15.07;;;3.80;;
962;SDS011;469;48.770;9.176;2022-08-21T12:11:26;11.13;;;3.45;;
962;SDS011;469;48.770;9.176;2022-08-21T12:13:54;9.65;;;3.45;;
962;SDS011;469;48.770;9.176;2022-08-21T12:16:28;7.07;;;2.90;;
962;SDS011;469;48.770;9.176;2022-08-21T12:19:02;10.10;;;3.53;;
962;SDS011;469;48.770;9.176;2022-08-21T12:21:29;6.43;;;3.15;;
962;SDS011;469;48.770;9.176;2022-08-21T12:24:02;10.68;;;3.15;;
962;SDS011;469;48.770;9.176;2022-08-21T12:26:31;6.30;;;3.15;;
962;SDS011;469;48.770;9.176;2022-08-21T12:29:05;10.45;;;3.55;;
962;SDS011;469;48.770;9.176;2022-08-21T12:31:34;11.77;;;3.50;;
962;SDS011;469;48.770;9.176;2022-08-21T12:34:01;11.00;;;3.58;;
962;SDS011;469;48.770;9.176;2022-08-21T12:36:34;10.82;;;3.03;;
962;SDS011;469;48.770;9.176;2022-08-21T12:39:10;9.98;;;3.25;;
962;SDS011;469;48.770;9.176;2022-08-21T12:41:42;9.82;;;3.33;;
962;SDS011;469;48.770;9.176;2022-08-21T12:44:12;8.20;;;3.30;;
962;SDS011;469;48.770;9.176;2022-08-21T12:46:43;8.80;;;3.20;;
962;SDS011;469;48.770;9.176;2022-08-21T12:49:12;10.68;;;2.80;;
962;SDS011;469;48.770;9.176;2022-08-21T12:51:45;10.13;;;3.42;;
962;SDS011;469;48.770;9.176;2022-08-21T12:54:22;8.30;;;3.55;;
962;SDS011;469;48.770;9.176;2022-08-21T12:56:59;9.80;;;3.13;;
962;SDS011;469;48.770;9.176;2022-08-21T12:59:26;10.70;;;3.55;;
962;SDS011;469;48.770;9.176;2022-08-21T13:01:53;8.70;;;3.50;;
962;SDS011;469;48.770;9.176;2022-08-21T13:04:33;9.10;;;2.90;;
962;SDS011;469;48.770;9.176;2022-08-21T13:07:04;10.73;;;3.55;;
962;SDS011;469;48.770;9.176;2022-08-21T13:09:33;9.30;;;3.80;;
962;SDS011;469;48.770;9.176;2022-08-21T13:12:00;10.10;;;3.55;;
962;SDS011;469;48.770;9.176;2022-08-21T13:14:28;8.25;;;3.50;;
962;SDS011;469;48.770;9.176;2022-08-21T13:16:56;7.57;;;3.60;;
962;SDS011;469;48.770;9.176;2022-08-21T13:19:24;8.43;;;3.10;;
962;SDS011;469;48.770;9.176;2022-08-21T13:21:51;7.95;;;3.15;;
962;SDS011;469;48.770;9.176;2022-08-21T13:24:19;6.90;;;3.17;;
962;SDS011;469;48.770;9.176;2022-08-21T13:26:48;5.47;;;3.05;;
962;SDS011;469;48.770;9.176;2022-08-21T13:29:17;6.80;;;3.00;;
962;SDS011;469;48.770;9.176;2022-08-21T13:31:47;10.85;;;3.33;;
962;SDS011;469;48.770;9.176;2022-08-21T13:34:15;6.32;;;3.00;;
962;SDS011;469;48.770;9.176;2022-08-21T13:36:42;6.72;;;3.10;;
962;SDS011;469;48.770;9.176;2022-08-21T13:39:11;6.57;;;3.05;;
962;SDS011;469;48.770;9.176;2022-08-21T13:41:40;9.40;;;2.80;;
962;SDS011;469;48.770;9.176;2022-08-21T13:44:15;12.13;;;3.60;;
962;SDS011;469;48.770;9.176;2022-08-21T13:46:42;7.45;;;2.83;;
962;SDS011;469;48.770;9.176;2022-08-21T13:49:10;5.80;;;3.10;;
962;SDS011;469;48.770;9.176;2022-08-21T13:51:39;7.47;;;3.05;;
962;SDS011;469;48.770;9.176;2022-08-21T13:54:13;7.75;;;2.90;;
962;SDS011;469;48.770;9.176;2022-08-21T13:56:41;8.30;;;3.00;;
962;SDS011;469;48.770;9.176;2022-08-21T13:59:08;5.47;;;2.80;;
962;SDS011;469;48.770;9.176;2022-08-21T14:01:38;10.02;;;3.38;;
962;SDS011;469;48.770;9.176;2022-08-21T14:04:06;10.98;;;3.38;;
962;SDS011;469;48.770;9.176;2022-08-21T14:06:35;8.68;;;3.15;;
962;SDS011;469;48.770;9.176;2022-08-21T14:09:07;8.18;;;3.63;;
962;SDS011;469;48.770;9.176;2022-08-21T14:11:35;6.25;;;2.83;;
962;SDS011;469;48.770;9.176;2022-08-21T14:14:04;7.77;;;2.87;;
962;SDS011;469;48.770;9.176;2022-08-21T14:16:42;6.63;;;2.80;;
962;SDS011;469;48.770;9.176;2022-08-21T14:19:11;6.93;;;3.20;;
962;SDS011;469;48.770;9.176;2022-08-21T14:21:45;7.40;;;2.70;;
962;SDS011;469;48.770;9.176;2022-08-21T14:24:13;6.83;;;2.43;;
962;SDS011;469;48.770;9.176;2022-08-21T14:26:51;7.80;;;3.10;;
962;SDS011;469;48.770;9.176;2022-08-21T14:29:22;9.67;;;3.03;;
962;SDS011;469;48.770;9.176;2022-08-21T14:31:52;4.90;;;2.63;;
962;SDS011;469;48.770;9.176;2022-08-21T14:34:20;6.03;;;3.20;;
962;SDS011;469;48.770;9.176;2022-08-21T14:36:48;7.03;;;3.23;;
962;SDS011;469;48.770;9.176;2022-08-21T14:39:15;6.57;;;2.93;;
962;SDS011;469;48.770;9.176;2022-08-21T14:41:42;10.80;;;3.60;;
962;SDS011;469;48.770;9.176;2022-08-21T14:44:11;6.70;;;2.80;;
962;SDS011;469;48.770;9.176;2022-08-21T14:46:38;8.60;;;3.37;;
962;SDS011;469;48.770;9.176;2022-08-21T14:49:07;8.40;;;3.00;;
962;SDS011;469;48.770;9.176;2022-08-21T14:51:34;8.53;;;3.20;;
962;SDS011;469;48.770;9.176;2022-08-21T14:54:01;9.50;;;2.90;;
962;SDS011;469;48.770;9.176;2022-08-21T14:56:27;7.80;;;2.77;;
962;SDS011;469;48.770;9.176;2022-08-21T14:58:54;7.70;;;2.73;;
962;SDS011;469;48.770;9.176;2022-08-21T15:01:25;7.23;;;2.50;;
962;SDS011;469;48.770;9.176;2022-08-21T15:03:52;6.07;;;2.47;;
962;SDS011;469;48.770;9.176;2022-08-21T15:06:20;7.00;;;2.83;;
962;SDS011;469;48.770;9.176;2022-08-21T15:08:47;5.13;;;2.50;;
962;SDS011;469;48.770;9.176;2022-08-21T15:11:16;9.73;;;2.93;;
962;SDS011;469;48.770;9.176;2022-08-21T15:13:44;6.23;;;2.40;;
962;SDS011;469;48.770;9.176;2022-08-21T15:16:11;5.73;;;2.70;;
962;SDS011;469;48.770;9.176;2022-08-21T15:18:38;4.30;;;2.60;;
962;SDS011;469;48.770;9.176;2022-08-21T15:21:06;5.30;;;2.60;;
962;SDS011;469;48.770;9.176;2022-08-21T15:23:35;7.60;;;2.97;;
962;SDS011;469;48.770;9.176;2022-08-21T15:26:02;6.83;;;2.50;;
962;SDS011;469;48.770;9.176;2022-08-21T15:28:29;11.17;;;2.40;;
962;SDS011;469;48.770;9.176;2022-08-21T15:30:57;9.03;;;2.97;;
962;SDS011;469;48.770;9.176;2022-08-21T15:33:25;8.50;;;2.70;;
962;SDS011;469;48.770;9.176;2022-08-21T15:35:52;8.50;;;2.80;;
962;SDS011;469;48.770;9.176;2022-08-21T15:38:19;6.97;;;2.83;;
962;SDS011;469;48.770;9.176;2022-08-21T15:40:48;8.50;;;3.00;;
962;SDS011;469;48.770;9.176;2022-08-21T15:43:18;8.27;;;3.83;;
962;SDS011;469;48.770;9.176;2022-08-21T15:45:46;13.50;;;4.00;;
962;SDS011;469;48.770;9.176;2022-08-21T15:48:13;6.00;;;2.70;;
962;SDS011;469;48.770;9.176;2022-08-21T15:50:40;6.53;;;2.97;;
962;SDS011;469;48.770;9.176;2022-08-21T15:53:07;8.37;;;3.10;;
962;SDS011;469;48.770;9.176;2022-08-21T15:55:34;7.20;;;2.50;;